Time;durP1;ratioP1;P1;durP2;ratioP2;P2;SDS_P1;SDS_P2;PMS_P1;PMS_P2;Temp;Humidity;BMP_temperature;BMP_pressure;BME280_temperature;BME280_humidity;BME280_pressure;Samples;Min_cycle;Max_cycle;Signal;HPM_P1;HPM_P2
2022/09/11 00:03:02;;;;;;;3.07;2.87;;;17.90;99.90;;;;;;10421631;28;20214;-78
2022/09/11 00:08:05;;;;;;;3.13;2.93;;;18.00;99.90;;;;;;10400154;28;20232;-79
2022/09/11 00:13:09;;;;;;;2.77;2.67;;;18.00;99.90;;;;;;10413234;28;20217;-80
2022/09/11 00:18:13;;;;;;;2.80;2.60;;;18.10;99.90;;;;;;10397360;28;20293;-80
2022/09/11 00:23:16;;;;;;;3.10;2.90;;;18.10;99.90;;;;;;10414966;28;20297;-80
2022/09/11 00:28:22;;;;;;;3.00;2.80;;;18.10;99.90;;;;;;10401072;28;20222;-78
2022/09/11 00:33:25;;;;;;;3.23;3.00;;;18.10;99.90;;;;;;10422609;28;20277;-80
2022/09/11 00:38:28;;;;;;;2.70;2.60;;;18.10;99.90;;;;;;10397162;28;20222;-79
2022/09/11 00:43:51;;;;;;;3.13;2.93;;;18.10;99.90;;;;;;10412383;28;20268;-80
2022/09/11 00:48:56;;;;;;;2.93;2.73;;;18.10;99.90;;;;;;10395735;28;20209;-80
2022/09/11 00:53:59;;;;;;;3.13;2.93;;;18.10;99.90;;;;;;10409388;28;20237;-80
2022/09/11 00:59:03;;;;;;;2.80;2.70;;;18.10;99.90;;;;;;10381377;28;20308;-79
2022/09/11 01:04:06;;;;;;;2.97;2.77;;;18.00;99.90;;;;;;10410698;28;20249;-80
2022/09/11 01:09:08;;;;;;;2.73;2.53;;;18.10;99.90;;;;;;10397920;28;20221;-78
2022/09/11 01:14:24;;;;;;;3.23;2.93;;;18.10;99.90;;;;;;10410210;28;20198;-80
2022/09/11 01:19:41;;;;;;;3.03;2.83;;;18.10;99.90;;;;;;10395341;28;20229;-79
2022/09/11 01:24:56;;;;;;;3.03;2.90;;;18.10;99.90;;;;;;10407563;28;20230;-80
2022/09/11 01:30:04;;;;;;;3.60;3.37;;;18.10;99.90;;;;;;10380852;28;20773;-80
2022/09/11 01:35:12;;;;;;;2.93;2.73;;;18.10;99.90;;;;;;10388837;28;20195;-80
2022/09/11 01:40:20;;;;;;;3.20;3.00;;;18.10;99.90;;;;;;10383868;28;20218;-80
2022/09/11 01:45:27;;;;;;;3.00;2.70;;;18.10;99.90;;;;;;10414690;28;20224;-79
2022/09/11 01:50:31;;;;;;;3.07;2.83;;;18.00;99.90;;;;;;10410784;28;20220;-80
2022/09/11 01:55:39;;;;;;;3.27;2.97;;;18.00;99.90;;;;;;10402858;28;20210;-79
2022/09/11 02:00:45;;;;;;;3.20;3.10;;;17.90;99.90;;;;;;10402624;28;20724;-80
2022/09/11 02:05:53;;;;;;;3.13;3.03;;;17.80;99.90;;;;;;10412577;28;20225;-80
2022/09/11 02:11:03;;;;;;;2.67;2.47;;;17.80;99.90;;;;;;10398081;28;20731;-80
2022/09/11 02:16:15;;;;;;;3.03;2.83;;;17.90;99.90;;;;;;10383050;28;20226;-79
2022/09/11 02:21:18;;;;;;;3.87;3.47;;;17.80;99.90;;;;;;10401978;28;20676;-79
2022/09/11 02:26:23;;;;;;;3.23;3.13;;;17.70;99.90;;;;;;10403399;28;20215;-79
2022/09/11 02:31:26;;;;;;;3.30;3.07;;;17.70;99.90;;;;;;10407821;28;20190;-79
2022/09/11 02:36:50;;;;;;;3.57;3.37;;;17.70;99.90;;;;;;10396924;28;20226;-79
2022/09/11 02:42:07;;;;;;;3.70;3.40;;;17.80;99.90;;;;;;10400491;28;20201;-79
2022/09/11 02:47:24;;;;;;;3.10;3.00;;;17.80;99.90;;;;;;10393806;28;20212;-79
2022/09/11 02:52:37;;;;;;;3.83;3.27;;;17.90;99.90;;;;;;10400286;28;20223;-79
2022/09/11 02:57:44;;;;;;;3.60;3.30;;;17.90;99.90;;;;;;10383793;28;20214;-79
2022/09/11 03:02:48;;;;;;;3.60;3.30;;;18.00;99.90;;;;;;10398262;28;20205;-80
2022/09/11 03:07:50;;;;;;;3.50;3.23;;;18.00;99.90;;;;;;10384910;28;20242;-79
2022/09/11 03:12:53;;;;;;;3.30;3.10;;;18.00;99.90;;;;;;10403613;28;20194;-78
2022/09/11 03:17:57;;;;;;;3.40;3.30;;;18.10;99.90;;;;;;10417361;28;20581;-79
2022/09/11 03:22:59;;;;;;;3.43;3.23;;;18.10;99.90;;;;;;10390695;28;20207;-79
2022/09/11 03:28:03;;;;;;;4.53;3.17;;;18.10;99.90;;;;;;10404344;28;20301;-79
2022/09/11 03:33:10;;;;;;;3.23;3.13;;;18.10;99.90;;;;;;10394558;28;20253;-79
2022/09/11 03:38:12;;;;;;;3.70;3.40;;;18.00;99.90;;;;;;10385010;28;20222;-79
2022/09/11 03:43:16;;;;;;;3.63;3.43;;;18.00;99.90;;;;;;10377817;28;20222;-79
2022/09/11 03:48:20;;;;;;;3.97;3.67;;;18.00;99.90;;;;;;10408162;28;20228;-78
2022/09/11 03:53:22;;;;;;;5.00;4.60;;;18.00;99.90;;;;;;10398625;28;20293;-79
2022/09/11 03:58:24;;;;;;;4.90;4.60;;;18.00;99.90;;;;;;10410094;28;20290;-79
2022/09/11 04:03:29;;;;;;;4.70;4.40;;;18.10;99.90;;;;;;10399974;28;20199;-79
2022/09/11 04:08:33;;;;;;;6.10;4.63;;;18.00;99.90;;;;;;10407431;28;20237;-79
2022/09/11 04:13:38;;;;;;;4.97;4.60;;;18.10;99.90;;;;;;10398828;28;20282;-79
2022/09/11 04:18:45;;;;;;;5.57;5.17;;;18.10;99.90;;;;;;10391881;28;20226;-79
2022/09/11 04:23:52;;;;;;;5.50;4.97;;;18.10;99.90;;;;;;10382834;28;20199;-79
2022/09/11 04:28:54;;;;;;;5.07;4.87;;;18.10;99.90;;;;;;10414661;28;20234;-79
2022/09/11 04:33:58;;;;;;;5.33;5.03;;;18.10;99.90;;;;;;10395397;28;20737;-79
2022/09/11 04:39:05;;;;;;;6.53;6.03;;;18.10;99.90;;;;;;10404843;28;20684;-79
2022/09/11 04:44:07;;;;;;;5.50;5.20;;;18.20;99.90;;;;;;10396457;28;20700;-79
2022/09/11 04:49:17;;;;;;;7.27;6.63;;;18.20;99.90;;;;;;10404985;28;20314;-79
2022/09/11 04:54:22;;;;;;;5.50;5.20;;;18.20;99.90;;;;;;10391681;28;20298;-79
2022/09/11 04:59:26;;;;;;;6.87;6.27;;;18.20;99.90;;;;;;10398364;28;20578;-80
2022/09/11 05:04:37;;;;;;;5.70;5.20;;;18.30;99.90;;;;;;10397465;28;20198;-79
2022/09/11 05:09:39;;;;;;;6.43;6.03;;;18.30;99.90;;;;;;10408202;28;20226;-78
2022/09/11 05:14:41;;;;;;;5.30;4.97;;;18.30;99.90;;;;;;10389538;28;20205;-78
2022/09/11 05:19:45;;;;;;;6.60;6.20;;;18.40;99.90;;;;;;10406477;28;20214;-78
2022/09/11 05:24:48;;;;;;;5.93;5.53;;;18.40;99.90;;;;;;10396713;28;20548;-79
2022/09/11 05:29:52;;;;;;;5.80;5.30;;;18.40;99.90;;;;;;10406150;28;20213;-79
2022/09/11 05:34:56;;;;;;;7.03;6.27;;;18.40;99.90;;;;;;10380545;28;20289;-79
2022/09/11 05:39:58;;;;;;;7.13;6.53;;;18.50;99.90;;;;;;10401566;28;20287;-79
2022/09/11 05:45:00;;;;;;;6.70;6.20;;;18.50;99.90;;;;;;10393777;28;20604;-79
2022/09/11 05:50:06;;;;;;;6.20;5.70;;;18.50;99.90;;;;;;10380871;28;20304;-79
2022/09/11 05:55:08;;;;;;;6.07;5.67;;;18.60;99.90;;;;;;10391665;28;20222;-79
2022/09/11 06:00:12;;;;;;;6.00;5.60;;;18.60;99.90;;;;;;10396952;28;20230;-79
2022/09/11 06:05:26;;;;;;;6.80;6.10;;;18.70;99.90;;;;;;10391566;28;20285;-79
2022/09/11 06:10:30;;;;;;;6.50;6.00;;;18.70;99.90;;;;;;10397915;28;20668;-79
2022/09/11 06:15:32;;;;;;;7.63;7.00;;;18.70;99.90;;;;;;10391346;28;20194;-79
2022/09/11 06:20:35;;;;;;;6.57;5.97;;;18.70;99.90;;;;;;10398214;28;20284;-79
2022/09/11 06:25:39;;;;;;;6.30;5.90;;;18.70;99.90;;;;;;10390114;28;20222;-79
2022/09/11 06:30:41;;;;;;;7.47;7.07;;;18.80;99.90;;;;;;10397288;28;20637;-78
2022/09/11 06:35:56;;;;;;;7.33;6.83;;;18.80;99.90;;;;;;10392601;28;20195;-79
2022/09/11 06:41:01;;;;;;;6.87;6.47;;;18.80;99.90;;;;;;10402402;28;20617;-78
2022/09/11 06:46:04;;;;;;;6.67;6.27;;;18.90;99.90;;;;;;10395628;28;20232;-79
2022/09/11 06:51:11;;;;;;;7.40;6.90;;;18.90;99.90;;;;;;10402777;28;20240;-78
2022/09/11 06:56:16;;;;;;;7.50;6.97;;;18.90;99.90;;;;;;10396335;28;20222;-79
2022/09/11 07:01:21;;;;;;;8.23;7.50;;;19.00;99.90;;;;;;10407860;28;20202;-78
2022/09/11 07:06:31;;;;;;;8.07;7.37;;;19.10;99.90;;;;;;10394448;28;20222;-79
2022/09/11 07:11:37;;;;;;;8.27;7.53;;;19.10;99.90;;;;;;10403235;28;20194;-78
2022/09/11 07:16:39;;;;;;;8.20;7.60;;;19.20;99.90;;;;;;10399561;28;20254;-79
2022/09/11 07:21:47;;;;;;;7.77;7.27;;;19.30;99.90;;;;;;10412038;28;20213;-79
2022/09/11 07:26:49;;;;;;;9.67;8.87;;;19.40;99.90;;;;;;10401833;28;20215;-79
2022/09/11 07:31:57;;;;;;;7.70;7.20;;;19.40;99.90;;;;;;10410867;28;20220;-79
2022/09/11 07:37:03;;;;;;;6.87;6.47;;;19.40;99.90;;;;;;10399043;28;20301;-79
2022/09/11 07:42:06;;;;;;;7.27;6.80;;;19.40;99.90;;;;;;10424632;28;20193;-79
2022/09/11 07:47:08;;;;;;;8.73;8.13;;;19.50;99.90;;;;;;10399197;28;20219;-79
2022/09/11 07:52:20;;;;;;;8.37;7.77;;;19.60;99.90;;;;;;10407629;28;20206;-79
2022/09/11 07:57:31;;;;;;;7.57;7.07;;;19.60;99.90;;;;;;10397841;28;20250;-80
2022/09/11 08:02:35;;;;;;;7.87;7.17;;;19.60;99.90;;;;;;10393023;28;20744;-79
2022/09/11 08:07:39;;;;;;;9.57;8.37;;;19.60;99.90;;;;;;10399907;28;20309;-79
2022/09/11 08:12:42;;;;;;;7.63;7.00;;;19.60;99.90;;;;;;10410488;28;20202;-80
2022/09/11 08:17:44;;;;;;;7.40;6.87;;;19.60;99.90;;;;;;10397868;28;20219;-80
2022/09/11 08:22:48;;;;;;;7.17;6.67;;;19.60;99.90;;;;;;10395243;28;20212;-78
2022/09/11 08:27:51;;;;;;;7.93;7.20;;;19.80;99.90;;;;;;10403210;28;20289;-79
2022/09/11 08:32:56;;;;;;;7.60;7.00;;;19.90;99.90;;;;;;10408025;28;20201;-79
2022/09/11 08:38:00;;;;;;;7.10;6.60;;;20.10;99.90;;;;;;10400359;28;20236;-79
2022/09/11 08:43:03;;;;;;;7.80;7.10;;;20.30;99.90;;;;;;10411154;28;20280;-79
2022/09/11 08:48:08;;;;;;;8.03;7.53;;;20.50;99.90;;;;;;10400754;28;20226;-79
2022/09/11 08:53:15;;;;;;;7.00;6.40;;;20.70;99.90;;;;;;10401492;28;20222;-79
2022/09/11 08:58:29;;;;;;;6.90;6.40;;;20.70;99.90;;;;;;10382313;28;20217;-79
2022/09/11 09:03:51;;;;;;;7.87;7.37;;;20.70;99.90;;;;;;10405381;28;20205;-79
2022/09/11 09:09:03;;;;;;;8.20;7.60;;;20.70;99.90;;;;;;10373958;28;20226;-79
2022/09/11 09:14:24;;;;;;;6.83;6.33;;;20.60;99.90;;;;;;10388314;28;20198;-79
2022/09/11 09:19:31;;;;;;;7.57;6.90;;;20.50;99.90;;;;;;10389720;28;20222;-78
2022/09/11 09:24:42;;;;;;;7.83;7.30;;;20.60;99.90;;;;;;10411079;28;20198;-78
2022/09/11 09:29:48;;;;;;;6.97;6.53;;;20.80;99.90;;;;;;10385382;28;20203;-78
2022/09/11 09:34:58;;;;;;;6.03;5.67;;;21.20;99.90;;;;;;10409377;28;20224;-78
2022/09/11 09:40:05;;;;;;;6.03;5.70;;;21.50;99.90;;;;;;10383087;28;20721;-78
2022/09/11 09:45:26;;;;;;;5.50;5.20;;;21.80;99.80;;;;;;10402842;28;20574;-79
2022/09/11 09:50:32;;;;;;;6.80;6.30;;;21.80;99.20;;;;;;10381582;28;20268;-78
2022/09/11 09:55:35;;;;;;;7.00;6.43;;;21.70;98.80;;;;;;10414209;28;20262;-79
2022/09/11 10:00:40;;;;;;;7.83;7.30;;;21.70;99.50;;;;;;10384136;28;20292;-78
2022/09/11 10:05:43;;;;;;;6.73;6.13;;;21.60;99.90;;;;;;10415387;28;20272;-79
2022/09/11 10:10:55;;;;;;;7.57;7.00;;;21.70;99.90;;;;;;10386806;28;20199;-78
2022/09/11 10:16:00;;;;;;;6.53;6.13;;;21.80;99.90;;;;;;10397835;28;20200;-78
2022/09/11 10:21:15;;;;;;;7.90;7.30;;;22.00;99.20;;;;;;10366212;28;20224;-78
2022/09/11 10:26:24;;;;;;;7.40;6.90;;;22.20;99.20;;;;;;10414558;28;20224;-78
2022/09/11 10:31:26;;;;;;;7.20;6.70;;;22.30;98.90;;;;;;10378588;28;20199;-79
2022/09/11 10:36:30;;;;;;;10.27;9.33;;;22.40;98.10;;;;;;10412162;28;20214;-79
2022/09/11 10:41:35;;;;;;;9.70;9.00;;;22.30;98.20;;;;;;10378116;28;20226;-79
2022/09/11 10:46:38;;;;;;;7.30;6.73;;;22.40;99.00;;;;;;10411544;28;20221;-79
2022/09/11 10:51:42;;;;;;;7.63;7.07;;;22.50;98.50;;;;;;10382803;28;20200;-79
2022/09/11 10:57:04;;;;;;;7.70;7.10;;;22.60;98.80;;;;;;10420013;28;20220;-79
2022/09/11 11:02:18;;;;;;;7.90;7.30;;;22.60;98.40;;;;;;10385293;28;20194;-78
2022/09/11 11:07:39;;;;;;;7.47;6.87;;;22.60;97.10;;;;;;10420228;28;20232;-78
2022/09/11 11:12:52;;;;;;;7.10;6.60;;;22.50;97.40;;;;;;10383433;28;20194;-78
2022/09/11 11:18:16;;;;;;;6.70;6.20;;;22.40;98.30;;;;;;10421754;28;20709;-79
2022/09/11 11:23:49;;;;;;;6.77;6.30;;;22.40;96.70;;;;;;10387218;28;20190;-79
2022/09/11 11:29:09;;;;;;;7.20;6.70;;;22.30;97.60;;;;;;10413094;28;20238;-79
2022/09/11 11:34:33;;;;;;;7.47;6.97;;;22.20;97.60;;;;;;10391355;28;20272;-80
2022/09/11 11:39:43;;;;;;;7.40;6.90;;;22.00;97.70;;;;;;10409052;28;20690;-79
2022/09/11 11:44:53;;;;;;;7.33;6.83;;;21.80;97.70;;;;;;10395355;28;20194;-79
2022/09/11 11:50:02;;;;;;;8.30;7.63;;;21.60;97.60;;;;;;10406215;28;20241;-78
2022/09/11 11:55:13;;;;;;;6.70;6.30;;;21.50;98.40;;;;;;10395017;28;20284;-78
2022/09/11 12:00:18;;;;;;;6.50;6.10;;;21.30;98.90;;;;;;10405952;28;20309;-79
2022/09/11 12:05:24;;;;;;;7.00;6.60;;;21.20;98.10;;;;;;10393870;28;20202;-78
2022/09/11 12:10:32;;;;;;;6.30;5.90;;;21.20;97.40;;;;;;10402843;28;20238;-79
2022/09/11 12:15:36;;;;;;;6.73;6.30;;;21.20;97.90;;;;;;10395871;28;20636;-79
2022/09/11 12:20:40;;;;;;;5.77;5.37;;;21.30;95.70;;;;;;10404418;28;20281;-78
2022/09/11 12:26:06;;;;;;;6.90;6.40;;;21.50;96.80;;;;;;10393740;28;20612;-79
2022/09/11 12:31:10;;;;;;;5.87;5.57;;;21.80;96.10;;;;;;10402763;28;20195;-78
2022/09/11 12:36:16;;;;;;;6.17;5.87;;;22.00;97.80;;;;;;10397515;28;20337;-78
2022/09/11 12:41:26;;;;;;;7.50;7.00;;;22.10;96.40;;;;;;10402112;28;20214;-79
2022/09/11 12:47:11;;;;;;;7.87;7.37;;;22.30;95.40;;;;;;10398258;28;20233;-78
2022/09/11 12:52:32;;;;;;;7.60;7.00;;;22.40;95.30;;;;;;10395973;28;20202;-79
2022/09/11 12:57:38;;;;;;;6.83;6.43;;;22.30;96.50;;;;;;10404313;28;20213;-79
2022/09/11 13:02:45;;;;;;;8.47;7.87;;;22.40;95.90;;;;;;10391597;28;20207;-79
2022/09/11 13:07:53;;;;;;;6.83;6.43;;;22.40;95.90;;;;;;10404437;28;20226;-78
2022/09/11 13:12:56;;;;;;;7.37;6.90;;;22.50;97.30;;;;;;10392492;28;20301;-79
2022/09/11 13:17:58;;;;;;;7.10;6.70;;;22.60;96.10;;;;;;10405740;28;20301;-79
2022/09/11 13:23:17;;;;;;;6.97;6.37;;;22.60;96.70;;;;;;10390144;28;20202;-79
2022/09/11 13:28:19;;;;;;;7.50;7.00;;;22.70;97.00;;;;;;10403924;28;20252;-79
2022/09/11 13:33:27;;;;;;;7.30;6.70;;;22.80;96.70;;;;;;10389629;28;20238;-79
2022/09/11 13:38:33;;;;;;;7.53;7.03;;;22.80;95.70;;;;;;10405480;28;20213;-79
2022/09/11 13:43:38;;;;;;;6.90;6.40;;;22.80;95.80;;;;;;10390579;28;20218;-79
2022/09/11 13:48:41;;;;;;;7.03;6.53;;;22.80;95.70;;;;;;10405158;28;20213;-79
2022/09/11 13:53:47;;;;;;;7.90;7.30;;;22.90;95.10;;;;;;10386951;28;20199;-78
2022/09/11 13:58:49;;;;;;;7.13;6.63;;;22.90;95.50;;;;;;10403820;28;20271;-79
2022/09/11 14:03:51;;;;;;;8.60;7.90;;;22.80;95.40;;;;;;10390155;28;20209;-78
2022/09/11 14:08:56;;;;;;;7.83;7.33;;;22.70;95.80;;;;;;10407765;28;20304;-78
2022/09/11 14:14:06;;;;;;;7.97;7.37;;;22.50;95.70;;;;;;10392615;28;20205;-78
2022/09/11 14:19:14;;;;;;;8.27;7.77;;;22.40;96.60;;;;;;10410152;28;20218;-79
2022/09/11 14:24:28;;;;;;;11.60;10.73;;;22.40;96.90;;;;;;10395271;28;20208;-80
2022/09/11 14:29:31;;;;;;;7.30;6.90;;;22.40;95.20;;;;;;10409415;28;20698;-79
2022/09/11 14:34:33;;;;;;;6.80;6.40;;;22.40;95.20;;;;;;10389592;28;20281;-79
2022/09/11 14:39:40;;;;;;;7.83;7.33;;;22.30;93.20;;;;;;10407770;28;20222;-79
2022/09/11 14:44:42;;;;;;;7.47;7.00;;;22.20;95.30;;;;;;10390306;28;20638;-79
2022/09/11 14:49:45;;;;;;;7.40;7.00;;;22.10;94.90;;;;;;10407482;28;20214;-79
2022/09/11 14:54:48;;;;;;;6.77;6.30;;;22.30;96.00;;;;;;10390956;28;20221;-80
2022/09/11 14:59:51;;;;;;;6.40;6.10;;;22.30;95.60;;;;;;10417161;28;20293;-79
2022/09/11 15:04:54;;;;;;;6.70;6.30;;;22.20;95.50;;;;;;10391222;28;20207;-79
2022/09/11 15:09:58;;;;;;;7.30;6.90;;;22.10;94.20;;;;;;10406827;28;20245;-79
2022/09/11 15:15:00;;;;;;;7.73;7.00;;;22.00;94.60;;;;;;10389040;28;20201;-79
2022/09/11 15:20:06;;;;;;;6.40;6.00;;;21.90;95.10;;;;;;10403996;28;20253;-79
2022/09/11 15:25:10;;;;;;;6.30;6.00;;;21.80;94.30;;;;;;10369612;28;20202;-79
2022/09/11 15:30:12;;;;;;;7.43;6.93;;;21.70;95.60;;;;;;10401132;28;20649;-80
2022/09/11 15:35:17;;;;;;;6.90;6.50;;;21.60;95.60;;;;;;10388166;28;20214;-79
2022/09/11 15:40:21;;;;;;;7.03;6.63;;;21.70;96.20;;;;;;10407798;28;20221;-79
2022/09/11 15:45:23;;;;;;;6.83;6.43;;;21.70;95.60;;;;;;10395720;28;20549;-79
2022/09/11 15:50:28;;;;;;;8.63;7.97;;;21.80;94.50;;;;;;10409084;28;20221;-79
2022/09/11 15:55:32;;;;;;;8.20;7.60;;;22.00;94.90;;;;;;10395624;28;20208;-79
2022/09/11 16:00:35;;;;;;;7.93;7.13;;;22.20;95.40;;;;;;10407517;28;20277;-79
2022/09/11 16:05:41;;;;;;;6.77;6.37;;;22.50;96.10;;;;;;10396981;28;20305;-79
2022/09/11 16:10:44;;;;;;;6.57;6.17;;;22.70;95.30;;;;;;10409056;28;20202;-79
2022/09/11 16:15:47;;;;;;;6.00;5.60;;;22.70;94.60;;;;;;10402687;28;20613;-79
2022/09/11 16:20:56;;;;;;;6.50;6.10;;;22.70;94.00;;;;;;10416151;28;20304;-79
2022/09/11 16:26:02;;;;;;;6.67;6.27;;;22.60;95.10;;;;;;10398650;28;20223;-79
2022/09/11 16:31:06;;;;;;;6.20;5.80;;;22.40;95.20;;;;;;10418345;28;20204;-79
2022/09/11 16:36:11;;;;;;;6.43;6.03;;;22.30;94.30;;;;;;10424198;28;20276;-79
2022/09/11 16:41:17;;;;;;;7.23;6.73;;;22.10;95.70;;;;;;10396355;28;20265;-79
2022/09/11 16:46:21;;;;;;;6.70;6.30;;;21.90;95.80;;;;;;10390645;28;20222;-79
2022/09/11 16:51:24;;;;;;;6.50;6.10;;;21.80;96.00;;;;;;10395877;28;20287;-79
2022/09/11 16:56:27;;;;;;;7.03;6.63;;;21.70;95.30;;;;;;10407096;28;20260;-79
2022/09/11 17:01:29;;;;;;;6.83;6.40;;;21.50;96.10;;;;;;10395005;28;20724;-79
2022/09/11 17:06:32;;;;;;;7.87;7.33;;;21.50;95.60;;;;;;10406721;28;20251;-79
2022/09/11 17:11:36;;;;;;;7.43;6.83;;;21.40;95.20;;;;;;10396236;28;20199;-79
2022/09/11 17:16:38;;;;;;;8.00;7.40;;;21.30;98.00;;;;;;10413140;28;20689;-79
2022/09/11 17:21:40;;;;;;;9.00;8.20;;;21.20;98.00;;;;;;10396571;28;20237;-79
2022/09/11 17:26:44;;;;;;;8.00;7.50;;;21.10;98.30;;;;;;10406690;28;20228;-79
2022/09/11 17:31:46;;;;;;;7.40;7.00;;;21.00;97.20;;;;;;10399305;28;20226;-79
2022/09/11 17:36:48;;;;;;;8.70;8.03;;;20.90;97.00;;;;;;10403394;28;20296;-79
2022/09/11 17:41:51;;;;;;;7.80;7.10;;;20.90;98.50;;;;;;10398652;28;20353;-79
2022/09/11 17:46:55;;;;;;;7.27;6.70;;;20.80;96.80;;;;;;10402946;28;20253;-79
2022/09/11 17:51:57;;;;;;;7.60;7.00;;;20.70;96.90;;;;;;10397464;28;20207;-79
2022/09/11 17:57:01;;;;;;;7.47;6.87;;;20.60;96.60;;;;;;10401727;28;20241;-79
2022/09/11 18:02:03;;;;;;;8.03;7.43;;;20.40;97.10;;;;;;10397681;28;20218;-80
2022/09/11 18:07:05;;;;;;;8.40;7.77;;;20.20;97.60;;;;;;10407316;28;20253;-78
2022/09/11 18:12:09;;;;;;;7.60;7.10;;;20.10;97.70;;;;;;10404111;28;20668;-78
2022/09/11 18:17:11;;;;;;;7.60;7.00;;;20.00;98.00;;;;;;10401905;28;20225;-79
2022/09/11 18:22:13;;;;;;;7.50;7.00;;;19.90;98.30;;;;;;10399632;28;20218;-78
2022/09/11 18:27:17;;;;;;;8.37;7.67;;;19.80;98.50;;;;;;10399657;28;20769;-79
2022/09/11 18:32:19;;;;;;;7.33;6.93;;;19.80;98.50;;;;;;10382322;28;20198;-78
2022/09/11 18:37:21;;;;;;;7.40;6.90;;;19.60;98.80;;;;;;10399745;28;20214;-79
2022/09/11 18:42:24;;;;;;;8.20;7.70;;;19.60;98.80;;;;;;10400336;28;20218;-79
2022/09/11 18:47:27;;;;;;;8.10;7.53;;;19.50;99.30;;;;;;10400090;28;20213;-78
2022/09/11 18:52:30;;;;;;;8.33;7.73;;;19.50;99.30;;;;;;10401326;28;20244;-79
2022/09/11 18:57:33;;;;;;;7.97;7.37;;;19.40;98.90;;;;;;10397088;28;20233;-79
2022/09/11 19:02:36;;;;;;;8.10;7.50;;;19.40;98.90;;;;;;10397890;28;20679;-79
2022/09/11 19:07:38;;;;;;;7.60;7.10;;;19.20;99.90;;;;;;10395460;28;20229;-79
2022/09/11 19:12:41;;;;;;;7.70;7.20;;;19.20;99.70;;;;;;10403184;28;20217;-79
2022/09/11 19:17:43;;;;;;;8.27;7.57;;;19.10;99.90;;;;;;10403544;28;20221;-79
2022/09/11 19:22:45;;;;;;;8.70;8.07;;;19.10;99.90;;;;;;10409991;28;20234;-79
2022/09/11 19:27:49;;;;;;;7.60;7.10;;;19.00;99.90;;;;;;10404667;28;20214;-79
2022/09/11 19:32:51;;;;;;;8.33;7.73;;;19.00;99.90;;;;;;10409065;28;20198;-79
2022/09/11 19:37:54;;;;;;;7.90;7.30;;;19.00;99.90;;;;;;10401368;28;20245;-79
2022/09/11 19:42:58;;;;;;;9.00;8.40;;;19.00;99.90;;;;;;10409906;28;20300;-79
2022/09/11 19:48:00;;;;;;;8.27;7.67;;;19.00;99.90;;;;;;10396420;28;20245;-79
2022/09/11 19:53:02;;;;;;;8.40;7.90;;;18.90;99.90;;;;;;10408926;28;20217;-79
2022/09/11 19:58:05;;;;;;;7.90;7.30;;;18.90;99.70;;;;;;10398360;28;20221;-79
2022/09/11 20:03:07;;;;;;;9.33;8.53;;;18.80;99.80;;;;;;10408981;28;20313;-79
2022/09/11 20:08:10;;;;;;;9.30;8.70;;;18.70;99.70;;;;;;10399058;28;20584;-79
2022/09/11 20:13:14;;;;;;;8.97;8.30;;;18.60;99.90;;;;;;10414738;28;20286;-79
2022/09/11 20:18:16;;;;;;;9.77;8.43;;;18.50;99.90;;;;;;10401072;28;20248;-79
2022/09/11 20:23:18;;;;;;;8.93;8.20;;;18.50;99.90;;;;;;10412672;28;20268;-79
2022/09/11 20:28:21;;;;;;;8.33;7.63;;;18.50;99.90;;;;;;10394466;28;20267;-79
2022/09/11 20:33:23;;;;;;;7.27;6.80;;;18.40;99.90;;;;;;10410005;28;20203;-79
2022/09/11 20:38:25;;;;;;;8.40;7.80;;;18.40;99.90;;;;;;10393368;28;20220;-79
2022/09/11 20:43:29;;;;;;;8.00;7.30;;;18.30;99.90;;;;;;10410369;28;20641;-79
2022/09/11 20:48:31;;;;;;;8.33;7.73;;;18.20;99.90;;;;;;10394131;28;20306;-79
2022/09/11 20:53:33;;;;;;;8.43;7.67;;;18.10;99.90;;;;;;10410724;28;20622;-79
2022/09/11 20:58:38;;;;;;;8.47;7.87;;;18.10;99.90;;;;;;10391411;28;20587;-79
2022/09/11 21:03:45;;;;;;;8.00;7.40;;;18.00;99.90;;;;;;10410360;28;20234;-79
2022/09/11 21:08:50;;;;;;;8.30;7.80;;;17.90;99.90;;;;;;10387114;28;20217;-79
2022/09/11 21:13:54;;;;;;;7.73;7.23;;;17.90;99.90;;;;;;10404532;28;20182;-80
2022/09/11 21:18:57;;;;;;;8.93;8.33;;;17.80;99.90;;;;;;10384930;28;20213;-80
2022/09/11 21:24:01;;;;;;;8.93;8.30;;;17.80;99.90;;;;;;10407714;28;20222;-80
2022/09/11 21:29:06;;;;;;;8.00;7.50;;;17.80;99.90;;;;;;10385242;28;20217;-80
2022/09/11 21:34:09;;;;;;;8.40;7.80;;;17.80;99.90;;;;;;10404712;28;20193;-79
2022/09/11 21:39:11;;;;;;;9.17;8.57;;;17.80;99.90;;;;;;10385082;28;20219;-79
2022/09/11 21:44:15;;;;;;;8.97;8.37;;;17.80;99.90;;;;;;10404343;28;20194;-79
2022/09/11 21:49:17;;;;;;;9.50;8.70;;;17.70;99.90;;;;;;10382580;28;20686;-79
2022/09/11 21:54:19;;;;;;;9.20;8.60;;;17.70;99.90;;;;;;10403800;28;20199;-79
2022/09/11 21:59:23;;;;;;;9.97;8.40;;;17.80;99.90;;;;;;10380876;28;20701;-79
2022/09/11 22:04:25;;;;;;;8.87;8.27;;;17.70;99.90;;;;;;10404604;28;20199;-79
2022/09/11 22:09:28;;;;;;;9.30;8.70;;;17.70;99.90;;;;;;10383576;28;20220;-79
2022/09/11 22:14:32;;;;;;;8.80;8.20;;;17.60;99.90;;;;;;10405924;28;20194;-79
2022/09/11 22:19:34;;;;;;;9.87;9.17;;;17.50;99.90;;;;;;10379411;28;20239;-79
2022/09/11 22:24:37;;;;;;;9.57;8.97;;;17.50;99.90;;;;;;10404982;28;20191;-79
2022/09/11 22:29:41;;;;;;;8.80;8.30;;;17.40;99.90;;;;;;10377810;28;20695;-79
2022/09/11 22:34:43;;;;;;;8.30;7.70;;;17.40;99.90;;;;;;10407615;28;20285;-79
2022/09/11 22:39:45;;;;;;;9.10;8.50;;;17.40;99.90;;;;;;10376518;28;20226;-79
2022/09/11 22:44:48;;;;;;;8.30;7.70;;;17.40;99.90;;;;;;10407879;28;20486;-79
2022/09/11 22:49:50;;;;;;;7.60;7.10;;;17.40;99.90;;;;;;10368297;28;20304;-79
2022/09/11 22:54:52;;;;;;;8.73;8.10;;;17.40;99.90;;;;;;10416155;28;20205;-79
2022/09/11 22:59:56;;;;;;;9.83;9.03;;;17.30;99.90;;;;;;10385019;28;20221;-79
2022/09/11 23:10:19;;;;;;;9.00;8.30;;;17.30;99.90;;;;;;10384909;28;20209;-78
2022/09/11 23:15:23;;;;;;;9.37;8.77;;;17.20;99.90;;;;;;10413089;28;20198;-79
2022/09/11 23:20:25;;;;;;;9.37;8.53;;;17.20;99.90;;;;;;10384825;28;20245;-79
2022/09/11 23:25:27;;;;;;;9.67;8.87;;;17.10;99.90;;;;;;10412501;28;20293;-78
2022/09/11 23:30:30;;;;;;;8.37;7.60;;;17.10;99.90;;;;;;10383693;28;20210;-78
2022/09/11 23:35:32;;;;;;;9.17;8.37;;;17.10;99.90;;;;;;10413778;28;20356;-79
2022/09/11 23:40:34;;;;;;;9.63;8.93;;;17.10;99.90;;;;;;10383091;28;20221;-78
2022/09/11 23:45:38;;;;;;;8.23;7.67;;;17.10;99.90;;;;;;10413102;28;20273;-78
2022/09/11 23:50:40;;;;;;;8.40;7.77;;;17.10;99.90;;;;;;10382821;28;20210;-78
2022/09/11 23:55:42;;;;;;;9.50;8.80;;;17.00;99.90;;;;;;10415876;28;20218;-78
